createdAt,value
2018-05-03T00:01:50.290Z,6.72
2018-05-03T00:04:17.769Z,6.30
2018-05-03T00:06:45.237Z,6.32
2018-05-03T00:09:12.689Z,5.67
2018-05-03T00:11:40.165Z,6.03
2018-05-03T00:14:07.607Z,5.90
2018-05-03T00:16:35.849Z,7.57
2018-05-03T00:19:03.299Z,7.30
2018-05-03T00:21:30.762Z,6.30
2018-05-03T00:23:58.204Z,9.43
2018-05-03T00:26:26.432Z,8.55
2018-05-03T00:28:53.935Z,7.27
2018-05-03T00:31:21.398Z,6.62
2018-05-03T00:33:48.842Z,5.95
2018-05-03T00:36:16.294Z,9.30
2018-05-03T00:38:44.509Z,9.10
2018-05-03T00:41:11.957Z,6.65
2018-05-03T00:43:39.479Z,6.78
2018-05-03T00:46:06.931Z,6.60
2018-05-03T00:48:34.388Z,8.55
2018-05-03T00:51:01.838Z,7.85
2018-05-03T00:53:29.318Z,7.60
2018-05-03T00:55:56.759Z,6.60
2018-05-03T00:58:24.983Z,7.12
2018-05-03T01:00:52.498Z,8.43
2018-05-03T01:03:19.982Z,7.17
2018-05-03T01:05:47.531Z,8.60
2018-05-03T01:08:14.990Z,6.95
2018-05-03T01:10:42.428Z,7.50
2018-05-03T01:13:09.906Z,6.82
2018-05-03T01:15:37.374Z,7.53
2018-05-03T01:18:04.855Z,6.90
2018-05-03T01:20:32.627Z,8.15
2018-05-03T01:23:00.094Z,7.70
2018-05-03T01:25:27.543Z,7.47
2018-05-03T01:27:55.787Z,8.45
2018-05-03T01:30:23.262Z,7.45
2018-05-03T01:32:50.735Z,7.40
2018-05-03T01:35:30.102Z,11.05
2018-05-03T01:37:57.571Z,7.85
2018-05-03T01:40:25.012Z,8.13
2018-05-03T01:42:52.494Z,9.55
2018-05-03T01:45:19.983Z,12.32
2018-05-03T01:47:47.443Z,9.00
2018-05-03T01:50:15.011Z,8.10
2018-05-03T01:52:42.483Z,8.35
2018-05-03T01:55:09.947Z,8.70
2018-05-03T01:57:37.391Z,7.95
2018-05-03T02:00:04.870Z,8.77
2018-05-03T02:02:32.342Z,9.55
2018-05-03T02:04:59.784Z,9.90
2018-05-03T02:07:27.244Z,9.50
2018-05-03T02:09:55.280Z,8.85
2018-05-03T02:12:22.726Z,9.00
2018-05-03T02:14:50.222Z,8.88
2018-05-03T02:17:17.682Z,9.48
2018-05-03T02:19:45.166Z,9.57
2018-05-03T02:22:12.620Z,11.55
2018-05-03T02:24:40.098Z,9.52
2018-05-03T02:27:07.574Z,10.10
2018-05-03T02:29:35.137Z,10.85
2018-05-03T02:32:02.602Z,9.82
2018-05-03T02:34:30.068Z,9.30
2018-05-03T02:36:57.511Z,9.90
2018-05-03T02:39:24.993Z,9.27
2018-05-03T02:41:53.210Z,12.68
2018-05-03T02:44:20.660Z,9.70
2018-05-03T02:46:48.113Z,10.63
2018-05-03T02:49:15.572Z,9.80
2018-05-03T02:51:43.043Z,9.70
2018-05-03T02:54:10.530Z,11.05
2018-05-03T02:56:38.016Z,9.40
2018-05-03T02:59:17.364Z,9.13
2018-05-03T03:01:56.277Z,10.00
2018-05-03T03:04:41.714Z,9.27
2018-05-03T03:10:47.090Z,8.70
2018-05-03T03:16:40.591Z,10.25
2018-05-03T03:19:25.934Z,9.60
2018-05-03T03:22:11.153Z,8.85
2018-05-03T03:24:51.387Z,10.50
2018-05-03T03:27:36.627Z,10.45
2018-05-03T03:30:34.748Z,9.38
2018-05-03T03:33:14.169Z,9.93
2018-05-03T03:36:02.275Z,11.90
2018-05-03T03:38:41.624Z,9.80
2018-05-03T03:41:21.108Z,11.18
2018-05-03T03:44:01.435Z,13.18
2018-05-03T03:46:28.913Z,11.20
2018-05-03T03:48:56.367Z,11.15
2018-05-03T03:51:23.820Z,14.00
2018-05-03T03:53:51.280Z,13.15
2018-05-03T03:56:18.733Z,12.13
2018-05-03T03:58:47.023Z,12.10
2018-05-03T04:01:14.449Z,12.37
2018-05-03T04:03:41.923Z,13.10
2018-05-03T04:06:09.396Z,14.75
2018-05-03T04:08:36.862Z,14.27
2018-05-03T04:11:04.412Z,13.37
2018-05-03T04:13:31.875Z,13.90
2018-05-03T04:15:59.447Z,14.10
2018-05-03T04:18:38.930Z,14.60
2018-05-03T04:21:18.199Z,15.70
2018-05-03T04:24:21.416Z,15.05
2018-05-03T04:26:49.650Z,15.30
2018-05-03T04:29:17.104Z,15.38
2018-05-03T04:31:44.564Z,17.50
2018-05-03T04:34:12.042Z,16.80
2018-05-03T04:36:39.604Z,20.17
2018-05-03T04:39:07.063Z,20.00
2018-05-03T04:41:35.435Z,20.83
2018-05-03T04:44:03.676Z,20.45
2018-05-03T04:46:31.135Z,19.73
2018-05-03T04:48:58.622Z,19.65
2018-05-03T04:51:26.102Z,20.13
2018-05-03T04:53:53.562Z,19.42
2018-05-03T04:56:21.016Z,20.27
2018-05-03T04:58:48.482Z,20.98
2018-05-03T05:01:15.971Z,20.12
2018-05-03T05:03:44.221Z,19.42
2018-05-03T05:06:11.677Z,22.30
2018-05-03T05:08:39.887Z,21.05
2018-05-03T05:11:07.404Z,26.02
2018-05-03T05:13:34.870Z,18.77
2018-05-03T05:16:02.335Z,17.30
2018-05-03T05:18:29.787Z,16.13
2018-05-03T05:20:57.248Z,15.93
2018-05-03T05:23:24.707Z,19.52
2018-05-03T05:25:52.159Z,17.50
2018-05-03T05:28:19.682Z,19.90
2018-05-03T05:30:47.263Z,15.63
2018-05-03T05:33:14.708Z,15.20
2018-05-03T05:35:42.185Z,18.48
2018-05-03T05:38:09.684Z,14.63
2018-05-03T05:40:37.132Z,14.05
2018-05-03T05:43:04.593Z,12.93
2018-05-03T05:45:32.056Z,15.10
2018-05-03T05:47:59.522Z,12.52
2018-05-03T05:50:26.980Z,12.48
2018-05-03T05:52:54.490Z,13.87
2018-05-03T05:55:21.959Z,14.00
2018-05-03T05:57:49.399Z,13.35
2018-05-03T06:00:16.881Z,14.90
2018-05-03T06:02:44.349Z,13.60
2018-05-03T06:05:11.807Z,10.63
2018-05-03T06:07:39.299Z,10.45
2018-05-03T06:10:06.771Z,10.37
2018-05-03T06:12:34.214Z,10.77
2018-05-03T06:15:01.707Z,13.25
2018-05-03T06:17:29.163Z,11.18
2018-05-03T06:19:56.647Z,10.45
2018-05-03T06:22:24.120Z,11.65
2018-05-03T06:24:51.576Z,9.60
2018-05-03T06:27:19.062Z,14.05
2018-05-03T06:29:46.502Z,11.35
2018-05-03T06:32:13.991Z,12.95
2018-05-03T06:34:41.487Z,10.15
2018-05-03T06:37:08.953Z,11.15
2018-05-03T06:39:36.455Z,7.45
2018-05-03T06:42:03.864Z,10.75
2018-05-03T06:44:31.335Z,10.63
2018-05-03T06:46:58.806Z,7.78
2018-05-03T06:49:26.296Z,7.25
2018-05-03T06:51:53.741Z,8.40
2018-05-03T06:54:21.194Z,7.45
2018-05-03T06:56:48.635Z,7.75
2018-05-03T06:59:16.893Z,8.75
2018-05-03T07:01:44.354Z,6.35
2018-05-03T07:04:11.980Z,8.55
2018-05-03T07:06:39.388Z,9.93
2018-05-03T07:09:06.854Z,10.55
2018-05-03T07:11:34.311Z,11.57
2018-05-03T07:14:01.818Z,8.63
2018-05-03T07:16:29.290Z,7.37
2018-05-03T07:18:56.754Z,7.03
2018-05-03T07:21:24.216Z,13.02
2018-05-03T07:23:51.750Z,11.20
2018-05-03T07:26:19.151Z,8.10
2018-05-03T07:28:46.631Z,7.18
2018-05-03T07:31:14.103Z,6.75
2018-05-03T07:33:41.564Z,7.68
2018-05-03T07:36:09.035Z,8.85
2018-05-03T07:38:36.489Z,7.20
2018-05-03T07:41:03.963Z,8.60
2018-05-03T07:43:31.452Z,9.32
2018-05-03T07:45:58.916Z,6.95
2018-05-03T07:48:26.405Z,10.13
2018-05-03T07:50:54.605Z,8.35
2018-05-03T07:53:22.961Z,9.63
2018-05-03T07:55:50.318Z,7.03
2018-05-03T07:58:17.939Z,6.95
2018-05-03T08:00:45.368Z,9.93
2018-05-03T08:03:12.858Z,9.02
2018-05-03T08:05:40.400Z,8.60
2018-05-03T08:08:07.851Z,6.47
2018-05-03T08:10:35.350Z,10.30
2018-05-03T08:13:02.805Z,6.68
2018-05-03T08:15:30.263Z,7.28
2018-05-03T08:17:57.747Z,7.87
2018-05-03T08:20:25.218Z,11.75
2018-05-03T08:22:52.676Z,10.57
2018-05-03T08:25:20.124Z,11.30
2018-05-03T08:27:47.583Z,11.38
2018-05-03T08:30:15.807Z,8.40
2018-05-03T08:32:43.260Z,11.85
2018-05-03T08:35:10.778Z,8.18
2018-05-03T08:37:38.233Z,8.73
2018-05-03T08:40:05.689Z,10.95
2018-05-03T08:42:33.190Z,13.17
2018-05-03T08:45:00.767Z,8.20
2018-05-03T08:47:28.231Z,8.13
2018-05-03T08:49:55.698Z,10.13
2018-05-03T08:52:23.171Z,8.73
2018-05-03T08:54:50.644Z,8.80
2018-05-03T08:57:18.102Z,10.68
2018-05-03T08:59:45.588Z,7.35
2018-05-03T09:02:13.058Z,7.30
2018-05-03T09:04:40.532Z,10.90
2018-05-03T09:07:07.988Z,8.82
2018-05-03T09:09:35.444Z,10.05
2018-05-03T09:12:02.919Z,10.40
2018-05-03T09:14:30.396Z,9.65
2018-05-03T09:16:57.878Z,8.15
2018-05-03T09:19:25.337Z,9.23
2018-05-03T09:21:52.788Z,9.05
2018-05-03T09:24:20.243Z,7.37
2018-05-03T09:26:48.028Z,10.13
2018-05-03T09:29:15.487Z,7.63
2018-05-03T09:31:42.965Z,5.60
2018-05-03T09:34:10.427Z,8.13
2018-05-03T09:36:37.890Z,6.90
2018-05-03T09:39:05.392Z,5.13
2018-05-03T09:41:32.816Z,7.75
2018-05-03T09:44:00.344Z,6.62
2018-05-03T09:46:27.800Z,6.55
2018-05-03T09:48:55.251Z,8.10
2018-05-03T09:51:23.487Z,7.43
2018-05-03T09:53:50.986Z,8.40
2018-05-03T09:56:18.446Z,6.55
2018-05-03T09:58:45.902Z,6.37
2018-05-03T10:01:13.360Z,6.10
2018-05-03T10:03:40.814Z,7.20
2018-05-03T10:06:08.280Z,7.03
2018-05-03T10:08:35.719Z,6.57
2018-05-03T10:11:03.951Z,6.37
2018-05-03T10:13:31.400Z,6.53
2018-05-03T10:15:58.867Z,5.62
2018-05-03T10:18:27.078Z,5.30
2018-05-03T10:20:54.528Z,6.80
2018-05-03T10:23:21.982Z,6.47
2018-05-03T10:25:50.192Z,8.60
2018-05-03T10:28:17.660Z,8.02
2018-05-03T10:30:45.097Z,5.10
2018-05-03T10:33:13.332Z,5.55
2018-05-03T10:35:40.820Z,5.27
2018-05-03T10:38:08.258Z,5.37
2018-05-03T10:40:35.730Z,8.45
2018-05-03T10:43:03.186Z,6.40
2018-05-03T10:45:30.645Z,7.25
2018-05-03T10:47:58.862Z,5.35
2018-05-03T10:50:26.318Z,8.82
2018-05-03T10:52:53.782Z,5.57
2018-05-03T10:55:22.003Z,5.90
2018-05-03T10:57:49.453Z,6.15
2018-05-03T11:00:16.919Z,8.20
2018-05-03T11:02:44.373Z,4.30
2018-05-03T11:05:12.681Z,3.65
2018-05-03T11:07:40.064Z,4.55
2018-05-03T11:10:07.512Z,4.57
2018-05-03T11:12:34.954Z,5.82
2018-05-03T11:15:02.400Z,4.25
2018-05-03T11:17:29.860Z,4.50
2018-05-03T11:19:57.326Z,5.33
2018-05-03T11:22:24.787Z,6.15
2018-05-03T11:24:52.233Z,6.62
2018-05-03T11:29:59.034Z,6.90
2018-05-03T11:32:26.476Z,5.03
2018-05-03T11:34:53.935Z,8.57
2018-05-03T11:37:21.379Z,7.68
2018-05-03T11:39:49.599Z,5.30
2018-05-03T11:42:17.056Z,4.85
2018-05-03T11:44:45.255Z,7.33
2018-05-03T11:47:12.713Z,7.70
2018-05-03T11:49:40.926Z,6.72
2018-05-03T11:52:08.395Z,5.22
2018-05-03T11:54:35.831Z,6.18
2018-05-03T11:57:04.054Z,4.47
2018-05-03T11:59:31.600Z,5.18
2018-05-03T12:01:59.229Z,7.05
2018-05-03T12:04:26.686Z,5.28
2018-05-03T12:06:54.161Z,7.07
2018-05-03T12:09:21.622Z,7.40
2018-05-03T12:11:49.125Z,7.57
2018-05-03T12:14:16.535Z,5.50
2018-05-03T12:16:44.748Z,5.80
2018-05-03T12:19:12.196Z,7.28
2018-05-03T12:21:40.396Z,6.73
2018-05-03T12:24:07.840Z,7.85
2018-05-03T12:26:36.074Z,7.62
2018-05-03T12:29:03.574Z,7.70
2018-05-03T12:31:31.056Z,7.05
2018-05-03T12:33:58.503Z,6.28
2018-05-03T12:36:25.966Z,8.40
2018-05-03T12:38:53.426Z,6.90
2018-05-03T12:41:20.869Z,5.57
2018-05-03T12:43:49.100Z,5.62
2018-05-03T12:46:16.571Z,7.18
2018-05-03T12:48:44.074Z,7.35
2018-05-03T12:51:11.515Z,7.50
2018-05-03T12:53:39.967Z,6.37
2018-05-03T12:56:08.561Z,5.93
2018-05-03T12:58:42.128Z,8.57
2018-05-03T13:01:12.883Z,6.28
2018-05-03T13:03:40.902Z,5.87
2018-05-03T13:06:09.128Z,8.20
2018-05-03T13:08:36.594Z,5.80
2018-05-03T13:11:04.112Z,6.55
2018-05-03T13:13:31.587Z,6.40
2018-05-03T13:15:59.130Z,7.30
2018-05-03T13:18:26.591Z,7.00
2018-05-03T13:20:54.046Z,8.23
2018-05-03T13:23:22.263Z,7.07
2018-05-03T13:25:49.723Z,6.27
2018-05-03T13:28:17.181Z,6.18
2018-05-03T13:30:45.432Z,5.85
2018-05-03T13:33:12.886Z,7.30
2018-05-03T13:35:40.346Z,5.87
2018-05-03T13:38:07.799Z,7.75
2018-05-03T13:40:35.278Z,5.90
2018-05-03T13:43:02.738Z,5.95
2018-05-03T13:45:30.199Z,5.53
2018-05-03T13:47:58.413Z,7.30
2018-05-03T13:50:25.868Z,5.22
2018-05-03T13:52:53.388Z,6.20
2018-05-03T13:55:21.637Z,7.60
2018-05-03T13:57:49.111Z,8.25
2018-05-03T14:00:16.578Z,6.68
2018-05-03T14:02:44.055Z,5.82
2018-05-03T14:05:11.510Z,5.18
2018-05-03T14:07:38.972Z,7.73
2018-05-03T14:10:07.198Z,7.62
2018-05-03T14:12:34.652Z,7.80
2018-05-03T14:15:02.104Z,6.32
2018-05-03T14:17:30.316Z,8.50
2018-05-03T14:19:57.801Z,6.75
2018-05-03T14:22:26.016Z,5.85
2018-05-03T14:24:53.452Z,6.62
2018-05-03T14:27:21.682Z,7.80
2018-05-03T14:29:49.162Z,6.55
2018-05-03T14:32:16.618Z,4.85
2018-05-03T14:34:45.189Z,7.03
2018-05-03T14:37:12.718Z,5.80
2018-05-03T14:39:40.194Z,8.43
2018-05-03T14:42:07.648Z,9.30
2018-05-03T14:44:35.092Z,6.78
2018-05-03T14:47:02.600Z,5.45
2018-05-03T14:49:30.056Z,6.62
2018-05-03T14:51:57.519Z,6.47
2018-05-03T14:54:24.994Z,5.55
2018-05-03T14:56:59.020Z,7.87
2018-05-03T14:59:26.635Z,8.03
2018-05-03T15:01:54.106Z,8.23
2018-05-03T15:04:21.614Z,6.95
2018-05-03T15:06:49.178Z,4.53
2018-05-03T15:09:16.747Z,5.75
2018-05-03T15:11:44.225Z,4.65
2018-05-03T15:14:11.683Z,6.55
2018-05-03T15:16:39.159Z,6.07
2018-05-03T15:19:06.605Z,6.00
2018-05-03T15:21:34.050Z,5.60
2018-05-03T15:24:01.512Z,6.07
2018-05-03T15:26:29.736Z,5.30
2018-05-03T15:28:57.234Z,5.60
2018-05-03T15:31:25.503Z,4.40
2018-05-03T15:33:53.003Z,5.70
2018-05-03T15:36:20.430Z,4.87
2018-05-03T15:38:48.048Z,4.12
2018-05-03T15:41:15.778Z,4.85
2018-05-03T15:43:43.235Z,5.20
2018-05-03T15:46:10.759Z,5.35
2018-05-03T15:48:38.220Z,5.25
2018-05-03T15:51:05.693Z,7.12
2018-05-03T15:53:33.142Z,5.50
2018-05-03T15:56:00.597Z,4.65
2018-05-03T15:58:28.065Z,4.97
2018-05-03T16:00:55.512Z,3.85
2018-05-03T16:03:23.737Z,7.85
2018-05-03T16:05:51.185Z,5.47
2018-05-03T16:08:18.628Z,5.30
2018-05-03T16:10:46.836Z,3.83
2018-05-03T16:13:14.512Z,5.47
2018-05-03T16:15:42.729Z,4.13
2018-05-03T16:18:10.272Z,6.78
2018-05-03T16:20:38.487Z,3.37
2018-05-03T16:23:05.920Z,5.47
2018-05-03T16:25:34.143Z,4.30
2018-05-03T16:28:01.625Z,4.05
2018-05-03T16:30:29.095Z,7.80
2018-05-03T16:32:56.544Z,5.43
2018-05-03T16:35:24.010Z,3.47
2018-05-03T16:37:51.456Z,3.73
2018-05-03T16:40:18.912Z,4.72
2018-05-03T16:42:47.195Z,7.22
2018-05-03T16:45:14.631Z,5.12
2018-05-03T16:47:42.094Z,4.47
2018-05-03T16:50:09.539Z,4.45
2018-05-03T16:52:37.758Z,4.10
2018-05-03T16:55:05.222Z,3.50
2018-05-03T16:57:32.694Z,6.12
2018-05-03T17:00:00.156Z,3.62
2018-05-03T17:02:27.631Z,3.87
2018-05-03T17:04:55.086Z,5.60
2018-05-03T17:07:22.658Z,3.80
2018-05-03T17:09:50.270Z,5.35
2018-05-03T17:12:18.069Z,6.50
2018-05-03T17:14:46.495Z,4.12
2018-05-03T17:17:14.089Z,4.30
2018-05-03T17:19:41.542Z,4.87
2018-05-03T17:22:09.003Z,5.12
2018-05-03T17:24:38.480Z,4.50
2018-05-03T17:27:06.307Z,4.30
2018-05-03T17:29:34.524Z,5.87
2018-05-03T17:32:03.953Z,4.82
2018-05-03T17:34:32.947Z,5.30
2018-05-03T17:37:00.504Z,5.22
2018-05-03T17:39:27.966Z,3.67
2018-05-03T17:41:55.468Z,4.70
2018-05-03T17:44:23.017Z,6.05
2018-05-03T17:46:50.411Z,7.03
2018-05-03T17:49:17.891Z,6.25
2018-05-03T17:51:45.359Z,4.90
2018-05-03T17:54:12.828Z,3.65
2018-05-03T17:56:41.178Z,5.10
2018-05-03T17:59:09.381Z,4.00
2018-05-03T18:01:36.850Z,5.78
2018-05-03T18:04:04.307Z,5.93
2018-05-03T18:06:32.536Z,5.12
2018-05-03T18:08:59.980Z,5.68
2018-05-03T18:11:27.459Z,3.97
2018-05-03T18:13:54.919Z,6.32
2018-05-03T18:16:22.386Z,4.97
2018-05-03T18:18:50.590Z,7.15
2018-05-03T18:21:18.042Z,6.45
2018-05-03T18:23:45.499Z,3.60
2018-05-03T18:26:13.748Z,3.57
2018-05-03T18:28:41.199Z,4.10
2018-05-03T18:31:08.662Z,4.32
2018-05-03T18:33:36.140Z,4.70
2018-05-03T18:36:03.580Z,4.60
2018-05-03T18:38:31.062Z,4.40
2018-05-03T18:40:58.523Z,4.72
2018-05-03T18:43:25.963Z,4.10
2018-05-03T18:45:54.206Z,4.10
2018-05-03T18:48:21.653Z,5.72
2018-05-03T18:50:49.105Z,3.22
2018-05-03T18:53:17.335Z,4.53
2018-05-03T18:55:44.799Z,5.80
2018-05-03T18:58:12.307Z,4.27
2018-05-03T19:00:39.763Z,8.10
2018-05-03T19:03:07.208Z,3.95
2018-05-03T19:05:34.681Z,3.60
2018-05-03T19:08:02.145Z,4.95
2018-05-03T19:10:29.630Z,6.90
2018-05-03T19:12:57.114Z,5.35
2018-05-03T19:15:24.518Z,7.45
2018-05-03T19:17:52.757Z,5.93
2018-05-03T19:20:20.210Z,5.05
2018-05-03T19:22:47.690Z,5.20
2018-05-03T19:25:15.133Z,7.13
2018-05-03T19:27:42.629Z,5.93
2018-05-03T19:30:10.109Z,6.40
2018-05-03T19:32:37.565Z,5.70
2018-05-03T19:35:05.009Z,5.20
2018-05-03T19:37:32.466Z,4.60
2018-05-03T19:39:59.979Z,5.07
2018-05-03T19:42:27.442Z,5.62
2018-05-03T19:44:54.894Z,5.53
2018-05-03T19:47:22.340Z,6.55
2018-05-03T19:49:50.573Z,6.30
2018-05-03T19:52:18.055Z,6.37
2018-05-03T19:54:45.493Z,6.30
2018-05-03T19:57:12.968Z,5.40
2018-05-03T19:59:40.429Z,6.95
2018-05-03T20:02:07.868Z,8.00
2018-05-03T20:04:36.106Z,5.60
2018-05-03T20:07:03.561Z,7.25
2018-05-03T20:09:31.015Z,5.85
2018-05-03T20:11:58.460Z,7.28
2018-05-03T20:14:26.692Z,9.43
2018-05-03T20:16:54.151Z,5.23
2018-05-03T20:19:21.594Z,5.22
2018-05-03T20:21:49.850Z,7.07
2018-05-03T20:24:18.066Z,8.17
2018-05-03T20:26:46.350Z,9.55
2018-05-03T20:29:13.886Z,8.93
2018-05-03T20:31:41.351Z,10.45
2018-05-03T20:34:08.815Z,8.68
2018-05-03T20:36:36.270Z,9.60
2018-05-03T20:39:04.033Z,5.07
2018-05-03T20:41:31.487Z,11.10
2018-05-03T20:43:59.718Z,6.80
2018-05-03T20:46:27.174Z,10.45
2018-05-03T20:48:54.654Z,10.55
2018-05-03T20:51:22.108Z,8.73
2018-05-03T20:53:49.556Z,8.43
2018-05-03T20:56:17.019Z,9.15
2018-05-03T20:58:45.254Z,10.02
2018-05-03T21:01:12.730Z,7.55
2018-05-03T21:03:40.189Z,5.62
2018-05-03T21:06:07.649Z,8.27
2018-05-03T21:08:35.128Z,8.75
2018-05-03T21:11:02.573Z,8.68
2018-05-03T21:13:30.046Z,8.82
2018-05-03T21:15:57.511Z,6.40
2018-05-03T21:18:25.034Z,8.90
2018-05-03T21:20:54.263Z,7.82
2018-05-03T21:23:21.755Z,8.50
2018-05-03T21:25:49.965Z,9.93
2018-05-03T21:28:17.425Z,11.75
2018-05-03T21:30:45.666Z,8.82
2018-05-03T21:33:13.135Z,9.33
2018-05-03T21:35:40.591Z,9.18
2018-05-03T21:38:08.062Z,7.00
2018-05-03T21:40:35.526Z,9.38
2018-05-03T21:43:02.996Z,7.32
2018-05-03T21:45:30.440Z,9.15
2018-05-03T21:47:57.884Z,9.00
2018-05-03T21:50:25.362Z,6.75
2018-05-03T21:52:53.568Z,9.88
2018-05-03T21:55:21.035Z,9.68
2018-05-03T21:57:49.275Z,9.80
2018-05-03T22:00:16.733Z,6.20
2018-05-03T22:02:44.171Z,9.73
2018-05-03T22:05:11.759Z,8.73
2018-05-03T22:07:39.196Z,8.75
2018-05-03T22:10:07.434Z,10.32
2018-05-03T22:12:34.895Z,8.43
2018-05-03T22:15:02.365Z,11.60
2018-05-03T22:17:29.813Z,6.80
2018-05-03T22:19:57.282Z,8.65
2018-05-03T22:22:24.753Z,12.32
2018-05-03T22:24:52.200Z,10.75
2018-05-03T22:27:20.428Z,9.60
2018-05-03T22:29:47.914Z,9.10
2018-05-03T22:32:15.373Z,9.73
2018-05-03T22:34:42.842Z,10.15
2018-05-03T22:37:10.288Z,13.27
2018-05-03T22:39:37.744Z,11.65
2018-05-03T22:42:05.955Z,9.68
2018-05-03T22:44:33.441Z,11.38
2018-05-03T22:47:00.902Z,12.25
2018-05-03T22:49:28.361Z,11.85
2018-05-03T22:51:55.819Z,11.40
2018-05-03T22:54:23.287Z,10.68
2018-05-03T22:56:50.744Z,11.20
2018-05-03T22:59:18.955Z,8.20
2018-05-03T23:01:46.438Z,10.90
2018-05-03T23:04:13.888Z,8.10
2018-05-03T23:06:41.370Z,11.40
2018-05-03T23:09:08.830Z,9.30
2018-05-03T23:11:36.273Z,9.13
2018-05-03T23:14:04.519Z,11.57
2018-05-03T23:16:31.969Z,5.80
2018-05-03T23:18:59.428Z,8.30
2018-05-03T23:21:26.892Z,9.70
2018-05-03T23:23:54.370Z,9.20
2018-05-03T23:26:21.828Z,8.10
2018-05-03T23:28:49.299Z,9.05
2018-05-03T23:31:16.751Z,8.27
2018-05-03T23:33:44.964Z,10.18
2018-05-03T23:36:12.421Z,7.00
2018-05-03T23:38:39.897Z,9.38
2018-05-03T23:41:07.359Z,8.25
2018-05-03T23:43:35.580Z,9.23
2018-05-03T23:46:03.033Z,12.57
2018-05-03T23:48:30.502Z,9.25
2018-05-03T23:50:57.955Z,7.87
2018-05-03T23:53:26.203Z,10.68
2018-05-03T23:55:53.658Z,9.77
2018-05-03T23:58:21.134Z,10.48
